Teigen, MT

9:47 AM MDT on August 30, 2014 (GMT -0600)
Lewistown Municipal | Change Station
CLOSE
Current Station
Airport
Location: Lewistown,
Elevation: 4167 ft
Nearby Weather Stations

Elev 4167 ft 47.05 °N, 109.47 °W | Updated 53 minutes ago

Rain
Rain Mist
58 °F
Feels Like 58 °F
N
0
Wind Variable Wind from North

Today
High -- | Low -- °F
--% Chance of Precip.
Yesterday
High -- | Low -- °F
Precip. -- in
6:31 AM 7:57 PM
Waxing Crescent, 22% visible
Pressure 29.81 in
Visibility 5.0 miles
Clouds Few 4800 ft
Mostly Cloudy 6000 ft
Overcast 7500 ft
Dew Point 54 °F
Humidity 87%
Rainfall 0.08 in
Snow Depth Not available.
UV 1 out of 12
Pollen 7.70 out of 12
Air Quality Not available.
Flu Activity Not available.
METAR KLWT 301454Z AUTO 00000KT 5SM RA BR FEW048 BKN060 OVC075 14/12 A2989 RMK AO2 SLP093 P0006 60006 T01440122 51023

More Conditions Fewer Conditions

Pressure 29.81 in
Visibility 5.0 miles
Clouds Few 4800 ft
Mostly Cloudy 6000 ft
Overcast 7500 ft
Dew Point 54 °F
Humidity 87%
Rainfall 0.08 in
Snow Depth Not available.
UV 1 out of 12
Pollen 7.70 out of 12
Air Quality Not available.
Flu Activity Not available.
METAR KLWT 301454Z AUTO 00000KT 5SM RA BR FEW048 BKN060 OVC075 14/12 A2989 RMK AO2 SLP093 P0006 60006 T01440122 51023

More Conditions Fewer Conditions

10-Day Weather Forecast

Almanac

Astronomy

Aug. 30, 2014 Rise Set
Actual Time 6:31 AM MDT 7:57 PM MDT
Civil Twilight 5:59 AM MDT 8:29 PM MDT
Nautical Twilight 5:20 AM MDT 9:07 PM MDT
Astronomical Twilight 4:39 AM MDT 9:48 PM MDT
Moon 11:42 AM MDT 10:11 PM MDT
Length of Visible Light 14h 29m
Length of Day
13h 26m
Tomorrow will be 3m 15s shorter.
Waxing Crescent, 22% of the Moon is Illuminated
Today
Waxing Crescent
Sep 2
First Quarter
Sep 8
Full
Sep 15
Last Quarter
Sep 24
New

Today's Extremes

State Highs State Lows

Community

WunderPhotos

Upload Photos

1,748,550 photos uploaded!

WunderBlogs® & News

Nearby

Snow Depth

Station Depth Elevation
Crystal Lake 1 in 6050 ft
Daisy Peak 0 in 7600 ft
Spur Park 0 in 8100 ft
Deadman Creek 0 in 6450 ft
Onion Park 0 in 7410 ft

Earthquake Activity

City Distance Mag. Time & Date
No recent earthquake activity has been reported nearby.
Minimum magnitude displayed is 2.5.

Coastal Water Temperatures

Place Temperature
No Stations Reporting

Nearby Weather Stations